Seal Rock, OR (97376)

3:03 PM PDT on March 27, 2017 (GMT -0700)
Seal Rock | | Change Station

Elev 59 ft 44.50 °N, 124.08 °W | Updated 36 seconds ago

Overcast
Overcast
52.7 °F
Feels Like 52.7 °F
N
9.4
Wind Variable Wind from NW
Gusts 9.4 mph

Today
High -- | Low -- °F
--% Chance of Precip.
Yesterday
High -- | Low -- °F
Precip. -- in
Pressure 30.28 in
Visibility 10.0 miles
Clouds Few 3300 ft
Scattered Clouds 4200 ft
Mostly Cloudy 4800 ft
Dew Point 36 °F
Humidity 54%
Rainfall 0.18 in
Snow Depth Not available.
7:05 AM 7:37 PM
Waning Crescent, 0% visible
METAR KCVO 272155Z 22005KT 10SM FEW033 SCT042 BKN048 12/05 A3028 RMK AO1
Pressure 30.28 in
Visibility 10.0 miles
Clouds Few 3300 ft
Scattered Clouds 4200 ft
Mostly Cloudy 4800 ft
Dew Point 36 °F
Humidity 54%
Rainfall 0.18 in
Snow Depth Not available.
7:05 AM 7:37 PM
Waning Crescent, 0% visible
METAR KCVO 272155Z 22005KT 10SM FEW033 SCT042 BKN048 12/05 A3028 RMK AO1

Get Severe Weather Alerts

Thanks for signing up!

Be on the lookout for a verification email in your inbox.

You'll start receiving the daily forecast at 8 AM.

×

10-Day Weather Forecast

Almanac

Astronomy

Mar. 27, 2017 Rise Set
Actual Time
Civil Twilight
Nautical Twilight
Astronomical Twilight
Moon
Length of Visible Light
Length of Day
Tomorrow will be .
, % of the Moon is Illuminated

Today's Extremes

State Highs State Lows

Community

WunderPhotos

Upload Photos

1,962,540 photos uploaded!

WunderBlog® & News

Nearby

Air Quality

  Air Quality AQ Index Pollutant
Not available.

Snow Depth

Station Depth Elevation

Earthquake Activity

City Distance Mag. Time & Date
Minimum magnitude displayed is 2.5.

Earthquake Activity

City Distance Mag. Time & Date
Minimum magnitude displayed is 2.5.

Coastal Water Temperatures

Place Temperature

Stations

Nearby Weather Stations

Station Location Temp. Windchill Dew Point Humidity Wind Precip. Elev Updated Type
                   

Watches & Warnings

There are currently no watches in effect.